sensor_id;sensor_type;location;lat;lon;timestamp;temperature;humidity
19200;DHT22;9732;52.498;5.408;2023-04-06T08:35:17;8.70;99.90
19200;DHT22;9732;52.498;5.408;2023-04-06T08:37:43;8.60;99.90
19200;DHT22;9732;52.498;5.408;2023-04-06T08:40:11;8.90;99.90
19200;DHT22;9732;52.498;5.408;2023-04-06T08:42:40;9.10;99.90
19200;DHT22;9732;52.498;5.408;2023-04-06T08:45:08;9.30;99.90
19200;DHT22;9732;52.498;5.408;2023-04-06T08:47:36;9.50;99.90
19200;DHT22;9732;52.498;5.408;2023-04-06T08:50:04;9.60;99.90
19200;DHT22;9732;52.498;5.408;2023-04-06T08:52:32;9.60;99.90
19200;DHT22;9732;52.498;5.408;2023-04-06T08:54:59;9.80;99.90
19200;DHT22;9732;52.498;5.408;2023-04-06T08:57:26;9.80;99.90
19200;DHT22;9732;52.498;5.408;2023-04-06T08:59:54;9.70;99.90
19200;DHT22;9732;52.498;5.408;2023-04-06T09:02:21;9.80;99.90
19200;DHT22;9732;52.498;5.408;2023-04-06T09:04:49;9.90;99.90
19200;DHT22;9732;52.498;5.408;2023-04-06T09:07:18;9.80;99.90
19200;DHT22;9732;52.498;5.408;2023-04-06T09:09:47;9.90;99.90
19200;DHT22;9732;52.498;5.408;2023-04-06T09:12:22;10.00;99.90
19200;DHT22;9732;52.498;5.408;2023-04-06T09:14:49;10.00;99.90
19200;DHT22;9732;52.498;5.408;2023-04-06T09:17:20;10.10;99.90
19200;DHT22;9732;52.498;5.408;2023-04-06T09:19:47;10.20;99.90
19200;DHT22;9732;52.498;5.408;2023-04-06T09:22:14;10.30;99.90
19200;DHT22;9732;52.498;5.408;2023-04-06T09:24:42;10.60;99.90
19200;DHT22;9732;52.498;5.408;2023-04-06T09:27:10;10.70;99.90
19200;DHT22;9732;52.498;5.408;2023-04-06T09:29:37;10.90;99.90
19200;DHT22;9732;52.498;5.408;2023-04-06T09:32:05;11.00;99.90
19200;DHT22;9732;52.498;5.408;2023-04-06T09:34:33;11.10;99.90
19200;DHT22;9732;52.498;5.408;2023-04-06T09:37:00;11.30;99.90
19200;DHT22;9732;52.498;5.408;2023-04-06T09:39:26;11.30;99.90
19200;DHT22;9732;52.498;5.408;2023-04-06T09:41:54;11.30;99.90
19200;DHT22;9732;52.498;5.408;2023-04-06T09:44:23;11.30;99.90
19200;DHT22;9732;52.498;5.408;2023-04-06T09:46:53;11.20;99.90
19200;DHT22;9732;52.498;5.408;2023-04-06T09:49:21;11.10;99.90
19200;DHT22;9732;52.498;5.408;2023-04-06T09:51:56;11.00;99.90
19200;DHT22;9732;52.498;5.408;2023-04-06T09:54:24;10.80;99.90
19200;DHT22;9732;52.498;5.408;2023-04-06T09:56:58;10.70;99.90
19200;DHT22;9732;52.498;5.408;2023-04-06T09:59:33;10.60;99.90
19200;DHT22;9732;52.498;5.408;2023-04-06T10:02:04;10.40;99.90
19200;DHT22;9732;52.498;5.408;2023-04-06T10:04:37;10.40;99.90
19200;DHT22;9732;52.498;5.408;2023-04-06T10:07:06;10.40;99.90
19200;DHT22;9732;52.498;5.408;2023-04-06T10:09:34;10.50;99.90
19200;DHT22;9732;52.498;5.408;2023-04-06T10:12:03;10.60;99.90
19200;DHT22;9732;52.498;5.408;2023-04-06T10:14:33;10.70;99.90
19200;DHT22;9732;52.498;5.408;2023-04-06T10:17:02;10.80;99.90
19200;DHT22;9732;52.498;5.408;2023-04-06T10:19:34;10.90;99.90
19200;DHT22;9732;52.498;5.408;2023-04-06T10:22:02;11.00;99.90
19200;DHT22;9732;52.498;5.408;2023-04-06T10:24:30;10.90;99.90
19200;DHT22;9732;52.498;5.408;2023-04-06T10:26:58;11.00;99.90
19200;DHT22;9732;52.498;5.408;2023-04-06T10:29:25;10.90;99.90
19200;DHT22;9732;52.498;5.408;2023-04-06T10:31:53;10.90;99.90
19200;DHT22;9732;52.498;5.408;2023-04-06T10:34:21;10.80;99.90
19200;DHT22;9732;52.498;5.408;2023-04-06T10:36:48;10.80;99.90
19200;DHT22;9732;52.498;5.408;2023-04-06T10:39:24;10.80;99.90
19200;DHT22;9732;52.498;5.408;2023-04-06T10:41:52;10.90;99.90
19200;DHT22;9732;52.498;5.408;2023-04-06T10:44:20;10.90;99.90
19200;DHT22;9732;52.498;5.408;2023-04-06T10:46:55;10.80;99.90
19200;DHT22;9732;52.498;5.408;2023-04-06T10:49:22;10.70;99.90
19200;DHT22;9732;52.498;5.408;2023-04-06T10:51:52;10.70;99.90
19200;DHT22;9732;52.498;5.408;2023-04-06T10:54:21;10.80;99.90
19200;DHT22;9732;52.498;5.408;2023-04-06T10:56:48;10.80;99.90
19200;DHT22;9732;52.498;5.408;2023-04-06T10:59:18;10.90;99.90
19200;DHT22;9732;52.498;5.408;2023-04-06T11:01:45;11.10;99.90
19200;DHT22;9732;52.498;5.408;2023-04-06T11:04:16;11.10;99.90
19200;DHT22;9732;52.498;5.408;2023-04-06T11:06:46;11.20;99.90
19200;DHT22;9732;52.498;5.408;2023-04-06T11:09:23;11.20;99.90
19200;DHT22;9732;52.498;5.408;2023-04-06T11:11:50;11.30;99.90
19200;DHT22;9732;52.498;5.408;2023-04-06T11:14:18;11.20;99.90
19200;DHT22;9732;52.498;5.408;2023-04-06T11:16:46;11.10;99.90
19200;DHT22;9732;52.498;5.408;2023-04-06T11:19:15;11.00;99.90
19200;DHT22;9732;52.498;5.408;2023-04-06T11:21:43;10.90;99.90
19200;DHT22;9732;52.498;5.408;2023-04-06T11:24:14;10.80;99.90
19200;DHT22;9732;52.498;5.408;2023-04-06T11:26:43;10.60;99.90
19200;DHT22;9732;52.498;5.408;2023-04-06T11:29:10;10.50;99.90
19200;DHT22;9732;52.498;5.408;2023-04-06T11:31:41;10.50;99.90
19200;DHT22;9732;52.498;5.408;2023-04-06T11:34:16;10.40;99.90
19200;DHT22;9732;52.498;5.408;2023-04-06T11:36:44;10.40;99.90
19200;DHT22;9732;52.498;5.408;2023-04-06T11:39:13;10.30;99.90
19200;DHT22;9732;52.498;5.408;2023-04-06T11:41:47;10.20;99.90
19200;DHT22;9732;52.498;5.408;2023-04-06T11:44:14;10.10;99.90
19200;DHT22;9732;52.498;5.408;2023-04-06T11:46:50;10.00;99.90
19200;DHT22;9732;52.498;5.408;2023-04-06T11:49:18;10.10;99.90
19200;DHT22;9732;52.498;5.408;2023-04-06T11:51:46;9.90;99.90
19200;DHT22;9732;52.498;5.408;2023-04-06T11:54:12;10.00;99.90
19200;DHT22;9732;52.498;5.408;2023-04-06T11:56:39;10.00;99.90
19200;DHT22;9732;52.498;5.408;2023-04-06T11:59:06;9.90;99.90
19200;DHT22;9732;52.498;5.408;2023-04-06T12:01:32;9.80;99.90
19200;DHT22;9732;52.498;5.408;2023-04-06T12:03:59;9.80;99.90
19200;DHT22;9732;52.498;5.408;2023-04-06T12:06:28;9.80;99.90
19200;DHT22;9732;52.498;5.408;2023-04-06T12:08:55;9.70;99.90
19200;DHT22;9732;52.498;5.408;2023-04-06T12:11:22;9.70;99.90
19200;DHT22;9732;52.498;5.408;2023-04-06T12:13:48;9.70;99.90
19200;DHT22;9732;52.498;5.408;2023-04-06T12:16:15;9.60;99.90
19200;DHT22;9732;52.498;5.408;2023-04-06T12:18:44;9.60;99.90
19200;DHT22;9732;52.498;5.408;2023-04-06T12:21:11;9.60;99.90
19200;DHT22;9732;52.498;5.408;2023-04-06T12:23:39;9.60;99.90
19200;DHT22;9732;52.498;5.408;2023-04-06T12:26:06;9.60;99.90
19200;DHT22;9732;52.498;5.408;2023-04-06T12:28:32;9.50;99.90
19200;DHT22;9732;52.498;5.408;2023-04-06T12:30:59;9.50;99.90
19200;DHT22;9732;52.498;5.408;2023-04-06T12:33:26;9.50;99.90
19200;DHT22;9732;52.498;5.408;2023-04-06T12:35:53;9.60;99.90
19200;DHT22;9732;52.498;5.408;2023-04-06T12:38:19;9.60;99.90
19200;DHT22;9732;52.498;5.408;2023-04-06T12:40:48;9.60;99.90
19200;DHT22;9732;52.498;5.408;2023-04-06T12:43:14;9.60;99.90
19200;DHT22;9732;52.498;5.408;2023-04-06T12:45:41;9.70;99.90
19200;DHT22;9732;52.498;5.408;2023-04-06T12:48:08;9.70;99.90
19200;DHT22;9732;52.498;5.408;2023-04-06T12:50:34;9.80;99.90
19200;DHT22;9732;52.498;5.408;2023-04-06T12:53:01;9.70;99.90
19200;DHT22;9732;52.498;5.408;2023-04-06T12:55:30;9.70;99.90
19200;DHT22;9732;52.498;5.408;2023-04-06T12:58:00;9.70;99.90
19200;DHT22;9732;52.498;5.408;2023-04-06T13:00:27;9.60;99.90
19200;DHT22;9732;52.498;5.408;2023-04-06T13:02:54;9.60;99.90
19200;DHT22;9732;52.498;5.408;2023-04-06T13:05:21;9.60;99.90
19200;DHT22;9732;52.498;5.408;2023-04-06T13:07:48;9.60;99.90
19200;DHT22;9732;52.498;5.408;2023-04-06T13:10:15;9.50;99.90
19200;DHT22;9732;52.498;5.408;2023-04-06T13:12:41;9.60;99.90
19200;DHT22;9732;52.498;5.408;2023-04-06T13:15:10;9.60;99.90
19200;DHT22;9732;52.498;5.408;2023-04-06T13:17:37;9.60;99.90
19200;DHT22;9732;52.498;5.408;2023-04-06T13:20:05;9.50;99.90
19200;DHT22;9732;52.498;5.408;2023-04-06T13:22:32;9.50;99.90
19200;DHT22;9732;52.498;5.408;2023-04-06T13:24:58;9.40;99.90
19200;DHT22;9732;52.498;5.408;2023-04-06T13:27:25;9.40;99.90
19200;DHT22;9732;52.498;5.408;2023-04-06T13:29:52;9.40;99.90
19200;DHT22;9732;52.498;5.408;2023-04-06T13:32:20;9.40;99.90
19200;DHT22;9732;52.498;5.408;2023-04-06T13:34:47;9.40;99.90
19200;DHT22;9732;52.498;5.408;2023-04-06T13:37:15;9.40;99.90
19200;DHT22;9732;52.498;5.408;2023-04-06T13:39:42;9.40;99.90
19200;DHT22;9732;52.498;5.408;2023-04-06T13:42:08;9.40;99.90
19200;DHT22;9732;52.498;5.408;2023-04-06T13:44:35;9.30;99.90
19200;DHT22;9732;52.498;5.408;2023-04-06T13:47:02;9.40;99.90
19200;DHT22;9732;52.498;5.408;2023-04-06T13:49:30;9.40;99.90
19200;DHT22;9732;52.498;5.408;2023-04-06T13:51:57;9.40;99.90
19200;DHT22;9732;52.498;5.408;2023-04-06T13:54:26;9.40;99.90
19200;DHT22;9732;52.498;5.408;2023-04-06T13:56:53;9.30;99.90
19200;DHT22;9732;52.498;5.408;2023-04-06T13:59:20;9.30;99.90
19200;DHT22;9732;52.498;5.408;2023-04-06T14:01:47;9.40;99.90
19200;DHT22;9732;52.498;5.408;2023-04-06T14:04:14;9.30;99.90
19200;DHT22;9732;52.498;5.408;2023-04-06T14:06:44;9.30;99.90
19200;DHT22;9732;52.498;5.408;2023-04-06T14:09:11;9.20;99.90
19200;DHT22;9732;52.498;5.408;2023-04-06T14:11:38;9.20;99.90
19200;DHT22;9732;52.498;5.408;2023-04-06T14:14:04;9.20;99.90
19200;DHT22;9732;52.498;5.408;2023-04-06T14:16:31;9.20;99.90
19200;DHT22;9732;52.498;5.408;2023-04-06T14:18:58;9.20;99.90
19200;DHT22;9732;52.498;5.408;2023-04-06T14:21:25;9.20;99.90
19200;DHT22;9732;52.498;5.408;2023-04-06T14:23:53;9.20;99.90
19200;DHT22;9732;52.498;5.408;2023-04-06T14:26:20;9.20;99.90
19200;DHT22;9732;52.498;5.408;2023-04-06T14:28:48;9.20;99.90
19200;DHT22;9732;52.498;5.408;2023-04-06T14:31:15;9.10;99.90
19200;DHT22;9732;52.498;5.408;2023-04-06T14:33:42;9.10;99.90
19200;DHT22;9732;52.498;5.408;2023-04-06T14:36:09;9.00;99.90
19200;DHT22;9732;52.498;5.408;2023-04-06T14:38:36;9.00;99.90
19200;DHT22;9732;52.498;5.408;2023-04-06T14:41:05;9.00;99.90
19200;DHT22;9732;52.498;5.408;2023-04-06T14:43:32;9.10;99.90
19200;DHT22;9732;52.498;5.408;2023-04-06T14:46:02;9.00;99.90
19200;DHT22;9732;52.498;5.408;2023-04-06T14:48:28;9.00;99.90
19200;DHT22;9732;52.498;5.408;2023-04-06T14:50:56;9.00;99.90
19200;DHT22;9732;52.498;5.408;2023-04-06T14:53:23;9.00;99.90
19200;DHT22;9732;52.498;5.408;2023-04-06T14:55:49;9.00;99.90
19200;DHT22;9732;52.498;5.408;2023-04-06T14:58:18;9.00;99.90
19200;DHT22;9732;52.498;5.408;2023-04-06T15:00:45;9.00;99.90
19200;DHT22;9732;52.498;5.408;2023-04-06T15:03:11;8.90;99.90
19200;DHT22;9732;52.498;5.408;2023-04-06T15:05:38;8.90;99.90
19200;DHT22;9732;52.498;5.408;2023-04-06T15:08:05;8.90;99.90
19200;DHT22;9732;52.498;5.408;2023-04-06T15:10:32;8.90;99.90
19200;DHT22;9732;52.498;5.408;2023-04-06T15:12:59;9.00;99.90
19200;DHT22;9732;52.498;5.408;2023-04-06T15:15:27;9.00;99.90
19200;DHT22;9732;52.498;5.408;2023-04-06T15:17:54;9.00;99.90
19200;DHT22;9732;52.498;5.408;2023-04-06T15:20:21;8.90;99.90
19200;DHT22;9732;52.498;5.408;2023-04-06T15:22:47;8.90;99.90
19200;DHT22;9732;52.498;5.408;2023-04-06T15:25:14;8.90;99.90
19200;DHT22;9732;52.498;5.408;2023-04-06T15:27:41;8.90;99.90
19200;DHT22;9732;52.498;5.408;2023-04-06T15:30:09;8.80;99.90
19200;DHT22;9732;52.498;5.408;2023-04-06T15:32:37;8.80;99.90
19200;DHT22;9732;52.498;5.408;2023-04-06T15:35:08;8.90;99.90
19200;DHT22;9732;52.498;5.408;2023-04-06T15:37:36;8.90;99.90
19200;DHT22;9732;52.498;5.408;2023-04-06T15:40:04;8.90;99.90
19200;DHT22;9732;52.498;5.408;2023-04-06T15:42:30;8.80;99.90
19200;DHT22;9732;52.498;5.408;2023-04-06T15:44:57;8.70;99.90
19200;DHT22;9732;52.498;5.408;2023-04-06T15:47:24;8.70;99.90
19200;DHT22;9732;52.498;5.408;2023-04-06T15:49:52;8.80;99.90
19200;DHT22;9732;52.498;5.408;2023-04-06T15:52:18;8.70;99.90
19200;DHT22;9732;52.498;5.408;2023-04-06T15:54:47;8.80;99.90
19200;DHT22;9732;52.498;5.408;2023-04-06T15:57:13;8.80;99.90
19200;DHT22;9732;52.498;5.408;2023-04-06T15:59:40;8.80;99.90
19200;DHT22;9732;52.498;5.408;2023-04-06T16:02:07;8.70;99.90
19200;DHT22;9732;52.498;5.408;2023-04-06T16:04:34;8.70;99.90
19200;DHT22;9732;52.498;5.408;2023-04-06T16:07:02;8.80;99.90
19200;DHT22;9732;52.498;5.408;2023-04-06T16:09:29;8.80;99.90
19200;DHT22;9732;52.498;5.408;2023-04-06T16:11:55;8.80;99.90
19200;DHT22;9732;52.498;5.408;2023-04-06T16:14:22;8.80;99.90
19200;DHT22;9732;52.498;5.408;2023-04-06T16:16:49;8.70;99.90
19200;DHT22;9732;52.498;5.408;2023-04-06T16:19:16;8.70;99.90
19200;DHT22;9732;52.498;5.408;2023-04-06T16:21:42;8.70;99.90
19200;DHT22;9732;52.498;5.408;2023-04-06T16:24:11;8.70;99.90
19200;DHT22;9732;52.498;5.408;2023-04-06T16:26:38;8.80;99.90
19200;DHT22;9732;52.498;5.408;2023-04-06T16:29:06;8.70;99.90
19200;DHT22;9732;52.498;5.408;2023-04-06T16:31:34;8.60;99.90
19200;DHT22;9732;52.498;5.408;2023-04-06T16:34:01;8.60;99.90
19200;DHT22;9732;52.498;5.408;2023-04-06T16:36:29;8.60;99.90
19200;DHT22;9732;52.498;5.408;2023-04-06T16:38:57;8.60;99.90
19200;DHT22;9732;52.498;5.408;2023-04-06T16:41:26;8.60;99.90
19200;DHT22;9732;52.498;5.408;2023-04-06T16:43:53;8.70;99.90
19200;DHT22;9732;52.498;5.408;2023-04-06T16:46:21;8.60;99.90
19200;DHT22;9732;52.498;5.408;2023-04-06T16:48:54;8.60;99.90
19200;DHT22;9732;52.498;5.408;2023-04-06T16:51:20;8.70;99.90
19200;DHT22;9732;52.498;5.408;2023-04-06T16:53:47;8.70;99.90
19200;DHT22;9732;52.498;5.408;2023-04-06T16:56:14;8.60;99.90
19200;DHT22;9732;52.498;5.408;2023-04-06T16:58:42;8.60;99.90
19200;DHT22;9732;52.498;5.408;2023-04-06T17:01:17;8.70;99.90
19200;DHT22;9732;52.498;5.408;2023-04-06T17:03:43;8.70;99.90
19200;DHT22;9732;52.498;5.408;2023-04-06T17:06:11;8.70;99.90
19200;DHT22;9732;52.498;5.408;2023-04-06T17:08:38;8.70;99.90
19200;DHT22;9732;52.498;5.408;2023-04-06T17:11:05;8.70;99.90
19200;DHT22;9732;52.498;5.408;2023-04-06T17:13:32;8.80;99.90
19200;DHT22;9732;52.498;5.408;2023-04-06T17:16:00;8.70;99.90
19200;DHT22;9732;52.498;5.408;2023-04-06T17:18:27;8.70;99.90
19200;DHT22;9732;52.498;5.408;2023-04-06T17:20:55;8.70;99.90
19200;DHT22;9732;52.498;5.408;2023-04-06T17:23:22;8.70;99.90
19200;DHT22;9732;52.498;5.408;2023-04-06T17:25:49;8.70;99.90
19200;DHT22;9732;52.498;5.408;2023-04-06T17:28:16;8.70;99.90
19200;DHT22;9732;52.498;5.408;2023-04-06T17:30:43;8.70;99.90
19200;DHT22;9732;52.498;5.408;2023-04-06T17:33:12;8.70;99.90
19200;DHT22;9732;52.498;5.408;2023-04-06T17:35:40;8.70;99.90
19200;DHT22;9732;52.498;5.408;2023-04-06T17:38:06;8.70;99.90
19200;DHT22;9732;52.498;5.408;2023-04-06T17:40:33;8.70;99.90
19200;DHT22;9732;52.498;5.408;2023-04-06T17:43:02;8.70;99.90
19200;DHT22;9732;52.498;5.408;2023-04-06T17:45:28;8.70;99.90
19200;DHT22;9732;52.498;5.408;2023-04-06T17:47:55;8.70;99.90
19200;DHT22;9732;52.498;5.408;2023-04-06T17:50:23;8.70;99.90
19200;DHT22;9732;52.498;5.408;2023-04-06T17:52:50;8.70;99.90
19200;DHT22;9732;52.498;5.408;2023-04-06T17:55:17;8.70;99.90
19200;DHT22;9732;52.498;5.408;2023-04-06T17:57:45;8.70;99.90
19200;DHT22;9732;52.498;5.408;2023-04-06T18:00:13;8.70;99.90
19200;DHT22;9732;52.498;5.408;2023-04-06T18:02:41;8.70;99.90
19200;DHT22;9732;52.498;5.408;2023-04-06T18:05:08;8.70;99.90
19200;DHT22;9732;52.498;5.408;2023-04-06T18:07:36;8.70;99.90
19200;DHT22;9732;52.498;5.408;2023-04-06T18:10:04;8.80;99.90
19200;DHT22;9732;52.498;5.408;2023-04-06T18:12:31;8.70;99.90
19200;DHT22;9732;52.498;5.408;2023-04-06T18:14:58;8.70;99.90
19200;DHT22;9732;52.498;5.408;2023-04-06T18:17:24;8.70;99.90
19200;DHT22;9732;52.498;5.408;2023-04-06T18:19:51;8.70;99.90
19200;DHT22;9732;52.498;5.408;2023-04-06T18:22:18;8.70;99.90
19200;DHT22;9732;52.498;5.408;2023-04-06T18:24:46;8.70;99.90
19200;DHT22;9732;52.498;5.408;2023-04-06T18:27:13;8.70;99.90
19200;DHT22;9732;52.498;5.408;2023-04-06T18:29:41;8.60;99.90
19200;DHT22;9732;52.498;5.408;2023-04-06T18:32:09;8.70;99.90
19200;DHT22;9732;52.498;5.408;2023-04-06T18:34:36;8.60;99.90
19200;DHT22;9732;52.498;5.408;2023-04-06T18:37:03;8.60;99.90
19200;DHT22;9732;52.498;5.408;2023-04-06T18:39:30;8.60;99.90
19200;DHT22;9732;52.498;5.408;2023-04-06T18:41:58;8.60;99.90
19200;DHT22;9732;52.498;5.408;2023-04-06T18:44:25;8.60;99.90
19200;DHT22;9732;52.498;5.408;2023-04-06T18:46:52;8.70;99.90
19200;DHT22;9732;52.498;5.408;2023-04-06T18:49:19;8.70;99.90
19200;DHT22;9732;52.498;5.408;2023-04-06T18:51:45;8.70;99.90
19200;DHT22;9732;52.498;5.408;2023-04-06T18:54:12;8.70;99.90
19200;DHT22;9732;52.498;5.408;2023-04-06T18:56:39;8.70;99.90
19200;DHT22;9732;52.498;5.408;2023-04-06T18:59:07;8.70;99.90
19200;DHT22;9732;52.498;5.408;2023-04-06T19:01:35;8.60;99.90
19200;DHT22;9732;52.498;5.408;2023-04-06T19:04:05;8.70;99.90
19200;DHT22;9732;52.498;5.408;2023-04-06T19:06:32;8.70;99.90
19200;DHT22;9732;52.498;5.408;2023-04-06T19:08:59;8.80;99.90
19200;DHT22;9732;52.498;5.408;2023-04-06T19:11:26;8.90;99.90
19200;DHT22;9732;52.498;5.408;2023-04-06T19:13:53;8.90;99.90
19200;DHT22;9732;52.498;5.408;2023-04-06T19:16:21;8.90;99.90
19200;DHT22;9732;52.498;5.408;2023-04-06T19:18:48;9.00;99.90
19200;DHT22;9732;52.498;5.408;2023-04-06T19:21:15;9.00;99.90
19200;DHT22;9732;52.498;5.408;2023-04-06T19:23:43;9.00;99.90
19200;DHT22;9732;52.498;5.408;2023-04-06T19:26:10;9.00;99.90
19200;DHT22;9732;52.498;5.408;2023-04-06T19:28:37;8.90;99.90
19200;DHT22;9732;52.498;5.408;2023-04-06T19:31:04;9.00;99.90
19200;DHT22;9732;52.498;5.408;2023-04-06T19:33:33;9.00;99.90
19200;DHT22;9732;52.498;5.408;2023-04-06T19:36:01;9.00;99.90
19200;DHT22;9732;52.498;5.408;2023-04-06T19:38:28;9.00;99.90
19200;DHT22;9732;52.498;5.408;2023-04-06T19:40:55;9.00;99.90
19200;DHT22;9732;52.498;5.408;2023-04-06T19:43:21;9.00;99.90
19200;DHT22;9732;52.498;5.408;2023-04-06T19:45:48;9.10;99.90
19200;DHT22;9732;52.498;5.408;2023-04-06T19:48:15;9.10;99.90
19200;DHT22;9732;52.498;5.408;2023-04-06T19:50:44;9.10;99.90
19200;DHT22;9732;52.498;5.408;2023-04-06T19:53:11;9.10;99.90
19200;DHT22;9732;52.498;5.408;2023-04-06T19:55:37;9.10;99.90
19200;DHT22;9732;52.498;5.408;2023-04-06T19:58:04;9.10;99.90
19200;DHT22;9732;52.498;5.408;2023-04-06T20:00:31;9.10;99.90
19200;DHT22;9732;52.498;5.408;2023-04-06T20:02:58;9.10;99.90
19200;DHT22;9732;52.498;5.408;2023-04-06T20:05:25;9.10;99.90
19200;DHT22;9732;52.498;5.408;2023-04-06T20:07:53;9.10;99.90
19200;DHT22;9732;52.498;5.408;2023-04-06T20:10:20;9.10;99.90
19200;DHT22;9732;52.498;5.408;2023-04-06T20:12:47;9.10;99.90
19200;DHT22;9732;52.498;5.408;2023-04-06T20:15:14;9.10;99.90
19200;DHT22;9732;52.498;5.408;2023-04-06T20:17:41;9.10;99.90
19200;DHT22;9732;52.498;5.408;2023-04-06T20:20:09;9.10;99.90
19200;DHT22;9732;52.498;5.408;2023-04-06T20:22:36;9.20;99.90
19200;DHT22;9732;52.498;5.408;2023-04-06T20:25:05;9.20;99.90
19200;DHT22;9732;52.498;5.408;2023-04-06T20:27:32;9.20;99.90
19200;DHT22;9732;52.498;5.408;2023-04-06T20:29:58;9.20;99.90
19200;DHT22;9732;52.498;5.408;2023-04-06T20:32:25;9.20;99.90
19200;DHT22;9732;52.498;5.408;2023-04-06T20:34:52;9.20;99.90
19200;DHT22;9732;52.498;5.408;2023-04-06T20:37:19;9.20;99.90
19200;DHT22;9732;52.498;5.408;2023-04-06T20:39:46;9.20;99.90
19200;DHT22;9732;52.498;5.408;2023-04-06T20:42:14;9.20;99.90
19200;DHT22;9732;52.498;5.408;2023-04-06T20:44:41;9.20;99.90
19200;DHT22;9732;52.498;5.408;2023-04-06T20:47:08;9.30;99.90
19200;DHT22;9732;52.498;5.408;2023-04-06T20:49:34;9.30;99.90
19200;DHT22;9732;52.498;5.408;2023-04-06T20:52:01;9.30;99.90
19200;DHT22;9732;52.498;5.408;2023-04-06T20:54:28;9.40;99.90
19200;DHT22;9732;52.498;5.408;2023-04-06T20:56:55;9.40;99.90
19200;DHT22;9732;52.498;5.408;2023-04-06T20:59:25;9.40;99.90
19200;DHT22;9732;52.498;5.408;2023-04-06T21:01:52;9.30;99.90
19200;DHT22;9732;52.498;5.408;2023-04-06T21:04:19;9.20;99.90
19200;DHT22;9732;52.498;5.408;2023-04-06T21:06:46;9.20;99.90
19200;DHT22;9732;52.498;5.408;2023-04-06T21:09:13;9.20;99.90
19200;DHT22;9732;52.498;5.408;2023-04-06T21:11:40;9.30;99.90
19200;DHT22;9732;52.498;5.408;2023-04-06T21:14:07;9.40;99.90
19200;DHT22;9732;52.498;5.408;2023-04-06T21:16:35;9.40;99.90
19200;DHT22;9732;52.498;5.408;2023-04-06T21:19:02;9.40;99.90
19200;DHT22;9732;52.498;5.408;2023-04-06T21:21:29;9.40;99.90
19200;DHT22;9732;52.498;5.408;2023-04-06T21:23:55;9.50;99.90
19200;DHT22;9732;52.498;5.408;2023-04-06T21:26:22;9.50;99.90
19200;DHT22;9732;52.498;5.408;2023-04-06T21:28:49;9.40;99.90
19200;DHT22;9732;52.498;5.408;2023-04-06T21:31:16;9.40;99.90
19200;DHT22;9732;52.498;5.408;2023-04-06T21:33:45;9.40;99.90
19200;DHT22;9732;52.498;5.408;2023-04-06T21:36:12;9.40;99.90
19200;DHT22;9732;52.498;5.408;2023-04-06T21:38:38;9.40;99.90
19200;DHT22;9732;52.498;5.408;2023-04-06T21:41:05;9.40;99.90
19200;DHT22;9732;52.498;5.408;2023-04-06T21:43:32;9.30;99.90
19200;DHT22;9732;52.498;5.408;2023-04-06T21:46:00;9.20;99.90
19200;DHT22;9732;52.498;5.408;2023-04-06T21:48:26;9.30;99.90
19200;DHT22;9732;52.498;5.408;2023-04-06T21:50:54;9.40;99.90
19200;DHT22;9732;52.498;5.408;2023-04-06T21:53:21;9.40;99.90
19200;DHT22;9732;52.498;5.408;2023-04-06T21:55:48;9.40;99.90
19200;DHT22;9732;52.498;5.408;2023-04-06T21:58:15;9.40;99.90
19200;DHT22;9732;52.498;5.408;2023-04-06T22:00:42;9.50;99.90
19200;DHT22;9732;52.498;5.408;2023-04-06T22:03:09;9.40;99.90
19200;DHT22;9732;52.498;5.408;2023-04-06T22:05:36;9.40;99.90
19200;DHT22;9732;52.498;5.408;2023-04-06T22:08:04;9.40;99.90
19200;DHT22;9732;52.498;5.408;2023-04-06T22:10:31;9.50;99.90
19200;DHT22;9732;52.498;5.408;2023-04-06T22:12:58;9.50;99.90
19200;DHT22;9732;52.498;5.408;2023-04-06T22:15:25;9.50;99.90
19200;DHT22;9732;52.498;5.408;2023-04-06T22:17:52;9.40;99.90
19200;DHT22;9732;52.498;5.408;2023-04-06T22:20:19;9.50;99.90
19200;DHT22;9732;52.498;5.408;2023-04-06T22:22:46;9.50;99.90
19200;DHT22;9732;52.498;5.408;2023-04-06T22:25:14;9.50;99.90
19200;DHT22;9732;52.498;5.408;2023-04-06T22:27:40;9.50;99.90
19200;DHT22;9732;52.498;5.408;2023-04-06T22:30:08;9.50;99.90
19200;DHT22;9732;52.498;5.408;2023-04-06T22:32:35;9.50;99.90
19200;DHT22;9732;52.498;5.408;2023-04-06T22:35:01;9.50;99.90
19200;DHT22;9732;52.498;5.408;2023-04-06T22:37:28;9.40;99.90
19200;DHT22;9732;52.498;5.408;2023-04-06T22:39:55;9.40;99.90
19200;DHT22;9732;52.498;5.408;2023-04-06T22:42:23;9.40;99.90
19200;DHT22;9732;52.498;5.408;2023-04-06T22:44:50;9.40;99.90
19200;DHT22;9732;52.498;5.408;2023-04-06T22:47:17;9.40;99.90
19200;DHT22;9732;52.498;5.408;2023-04-06T22:49:44;9.40;99.90
19200;DHT22;9732;52.498;5.408;2023-04-06T22:52:11;9.40;99.90
19200;DHT22;9732;52.498;5.408;2023-04-06T22:54:37;9.40;99.90
19200;DHT22;9732;52.498;5.408;2023-04-06T22:57:04;9.30;99.90
19200;DHT22;9732;52.498;5.408;2023-04-06T22:59:32;9.30;99.90
19200;DHT22;9732;52.498;5.408;2023-04-06T23:01:59;9.30;99.90
19200;DHT22;9732;52.498;5.408;2023-04-06T23:04:25;9.20;99.90
19200;DHT22;9732;52.498;5.408;2023-04-06T23:06:52;9.20;99.90
19200;DHT22;9732;52.498;5.408;2023-04-06T23:09:19;9.20;99.90
19200;DHT22;9732;52.498;5.408;2023-04-06T23:11:45;9.10;99.90
19200;DHT22;9732;52.498;5.408;2023-04-06T23:14:12;9.10;99.90
19200;DHT22;9732;52.498;5.408;2023-04-06T23:16:40;9.10;99.90
19200;DHT22;9732;52.498;5.408;2023-04-06T23:19:07;9.20;99.90
19200;DHT22;9732;52.498;5.408;2023-04-06T23:21:34;9.20;99.90
19200;DHT22;9732;52.498;5.408;2023-04-06T23:24:01;9.20;99.90
19200;DHT22;9732;52.498;5.408;2023-04-06T23:26:27;9.20;99.90
19200;DHT22;9732;52.498;5.408;2023-04-06T23:28:54;9.20;99.90
19200;DHT22;9732;52.498;5.408;2023-04-06T23:31:21;9.20;99.90
19200;DHT22;9732;52.498;5.408;2023-04-06T23:33:49;9.20;99.90
19200;DHT22;9732;52.498;5.408;2023-04-06T23:36:15;9.20;99.90
19200;DHT22;9732;52.498;5.408;2023-04-06T23:38:42;9.10;99.90
19200;DHT22;9732;52.498;5.408;2023-04-06T23:41:12;9.10;99.90
19200;DHT22;9732;52.498;5.408;2023-04-06T23:43:39;9.10;99.90
19200;DHT22;9732;52.498;5.408;2023-04-06T23:46:05;9.10;99.90
19200;DHT22;9732;52.498;5.408;2023-04-06T23:48:32;9.10;99.90
19200;DHT22;9732;52.498;5.408;2023-04-06T23:51:00;9.10;99.90
19200;DHT22;9732;52.498;5.408;2023-04-06T23:53:27;9.10;99.90
19200;DHT22;9732;52.498;5.408;2023-04-06T23:55:54;9.20;99.90
19200;DHT22;9732;52.498;5.408;2023-04-06T23:58:20;9.20;99.90
